createdAt,value
2023-01-21T05:13:49.847Z,16.30
2023-01-21T05:28:54.305Z,9.77
2023-01-21T05:43:58.822Z,10.30
2023-01-21T05:59:03.323Z,12.27
2023-01-21T06:14:07.823Z,12.53
2023-01-21T06:29:12.418Z,11.27
2023-01-21T06:44:16.823Z,14.00
2023-01-21T06:59:21.291Z,16.30
2023-01-21T07:14:25.877Z,17.00
2023-01-21T07:29:30.339Z,19.33
2023-01-21T07:44:35.011Z,23.97
2023-01-21T07:59:39.473Z,23.77
2023-01-21T08:14:43.909Z,24.03
2023-01-21T08:29:48.570Z,25.33
2023-01-21T08:44:54.097Z,24.17
2023-01-21T08:59:58.573Z,30.17
2023-01-21T09:15:03.156Z,28.70
2023-01-21T09:30:08.943Z,26.50
2023-01-21T09:45:16.903Z,50.20
2023-01-21T10:00:35.303Z,34.07
2023-01-21T10:15:50.742Z,29.03
2023-01-21T10:30:57.446Z,29.57
2023-01-21T10:46:08.923Z,31.53
2023-01-21T11:01:19.749Z,28.80
2023-01-21T11:16:35.865Z,27.00
2023-01-21T11:31:41.716Z,27.77
2023-01-21T11:46:46.657Z,26.03
2023-01-21T12:01:56.697Z,23.20
2023-01-21T12:17:06.259Z,22.67
2023-01-21T12:32:15.211Z,24.53
2023-01-21T12:47:32.045Z,28.03
2023-01-21T13:02:48.483Z,35.83
2023-01-21T13:17:56.846Z,28.90
2023-01-21T13:33:23.564Z,26.37
2023-01-21T13:48:53.305Z,29.73
2023-01-21T14:04:04.215Z,27.90
2023-01-21T14:19:22.571Z,26.07
2023-01-21T14:34:30.931Z,24.67
2023-01-21T14:49:45.689Z,21.13
2023-01-21T15:04:56.815Z,24.73
2023-01-21T15:20:39.891Z,26.17
2023-01-21T15:35:45.318Z,22.13
2023-01-21T15:50:55.095Z,21.70
2023-01-21T16:06:05.339Z,22.53
2023-01-21T16:21:11.124Z,28.60
2023-01-21T16:36:16.275Z,26.77
2023-01-21T16:51:23.629Z,22.67
2023-01-21T17:06:31.648Z,22.00
2023-01-21T17:21:39.522Z,27.57
2023-01-21T17:36:45.601Z,26.40
2023-01-21T17:51:50.837Z,34.43
2023-01-21T18:06:56.553Z,32.27
2023-01-21T18:22:01.980Z,37.63
2023-01-21T18:37:13.896Z,40.90
2023-01-21T18:52:19.718Z,49.13
2023-01-21T19:07:25.421Z,50.63
2023-01-21T19:22:30.000Z,46.30
2023-01-21T19:37:34.490Z,50.40
2023-01-21T19:52:39.103Z,60.33
2023-01-21T20:07:44.266Z,58.97
2023-01-21T20:22:48.969Z,53.03
2023-01-21T20:37:54.880Z,56.93
2023-01-21T20:52:59.654Z,53.60
2023-01-21T21:08:04.479Z,56.80
2023-01-21T21:23:10.799Z,48.97
2023-01-21T21:38:18.301Z,45.77
2023-01-21T21:53:22.958Z,54.30
2023-01-21T22:08:29.433Z,47.90
2023-01-21T22:23:36.343Z,39.87
2023-01-21T22:38:41.339Z,35.27
2023-01-21T22:53:45.936Z,29.80
2023-01-21T23:08:50.926Z,33.77
2023-01-21T23:23:55.365Z,33.47
2023-01-21T23:38:59.866Z,35.77
2023-01-21T23:54:04.461Z,30.70
